createdAt,value
2018-03-23T00:00:55.585Z,6.59
2018-03-23T00:01:56.300Z,6.52
2018-03-23T00:02:57.018Z,6.56
2018-03-23T00:03:57.734Z,6.49
2018-03-23T00:04:58.473Z,6.62
2018-03-23T00:05:59.192Z,6.54
2018-03-23T00:06:59.912Z,6.56
2018-03-23T00:08:00.636Z,6.52
2018-03-23T00:11:53.566Z,6.56
2018-03-23T00:12:54.279Z,6.51
2018-03-23T00:13:55.008Z,6.57
2018-03-23T00:14:55.735Z,6.51
2018-03-23T00:15:56.464Z,6.51
2018-03-23T00:16:57.191Z,6.49
2018-03-23T00:17:57.919Z,6.51
2018-03-23T00:18:58.638Z,6.46
2018-03-23T00:19:59.366Z,6.44
2018-03-23T00:21:00.083Z,6.52
2018-03-23T00:22:00.802Z,6.38
2018-03-23T00:23:01.520Z,6.38
2018-03-23T00:24:02.238Z,6.46
2018-03-23T00:25:02.988Z,6.48
2018-03-23T00:26:03.716Z,6.46
2018-03-23T00:27:04.477Z,6.36
2018-03-23T00:28:05.196Z,6.35
2018-03-23T00:29:05.916Z,6.41
2018-03-23T00:30:06.642Z,6.38
2018-03-23T00:31:07.393Z,6.41
2018-03-23T00:32:08.116Z,6.41
2018-03-23T00:33:08.833Z,6.41
2018-03-23T00:34:09.551Z,6.39
2018-03-23T00:35:10.268Z,6.45
2018-03-23T00:36:10.997Z,6.41
2018-03-23T00:37:11.759Z,6.42
2018-03-23T00:38:12.479Z,6.38
2018-03-23T00:39:13.216Z,6.39
2018-03-23T00:40:13.949Z,6.38
2018-03-23T00:41:14.702Z,6.44
2018-03-23T00:42:15.437Z,6.36
2018-03-23T00:43:16.155Z,6.42
2018-03-23T00:44:16.883Z,6.42
2018-03-23T00:45:17.601Z,6.38
2018-03-23T00:46:18.321Z,6.42
2018-03-23T00:47:19.035Z,6.44
2018-03-23T00:48:19.762Z,6.41
2018-03-23T00:49:20.491Z,6.42
2018-03-23T00:50:21.256Z,6.42
2018-03-23T00:51:21.983Z,6.39
2018-03-23T00:52:22.702Z,6.39
2018-03-23T00:53:23.419Z,6.45
2018-03-23T00:54:24.137Z,6.36
2018-03-23T00:55:24.856Z,6.42
2018-03-23T00:56:25.587Z,6.36
2018-03-23T00:57:26.306Z,6.41
2018-03-23T00:58:27.025Z,6.33
2018-03-23T00:59:27.797Z,6.30
2018-03-23T01:00:28.459Z,6.35
2018-03-23T01:01:29.189Z,6.33
2018-03-23T05:48:36.306Z,5.90
2018-03-23T05:49:37.037Z,5.73
2018-03-23T05:50:37.769Z,5.80
2018-03-23T05:51:38.492Z,5.87
2018-03-23T05:52:39.238Z,5.82
2018-03-23T05:53:39.957Z,5.90
2018-03-23T05:54:40.690Z,5.79
2018-03-23T05:55:41.459Z,5.89
2018-03-23T05:56:42.180Z,5.86
2018-03-23T05:57:42.973Z,5.89
2018-03-23T05:58:43.695Z,5.90
2018-03-23T05:59:44.418Z,5.89
2018-03-23T06:00:45.153Z,5.86
2018-03-23T06:01:45.889Z,5.82
2018-03-23T06:02:46.643Z,5.84
2018-03-23T06:03:47.375Z,5.83
2018-03-23T06:04:48.107Z,5.83
2018-03-23T06:05:48.841Z,5.93
2018-03-23T06:06:49.564Z,5.84
2018-03-23T06:07:50.319Z,5.93
2018-03-23T06:08:51.074Z,5.83
2018-03-23T06:09:51.819Z,5.89
2018-03-23T06:10:52.565Z,5.90
2018-03-23T06:11:53.302Z,5.83
2018-03-23T06:12:54.026Z,5.93
2018-03-23T06:13:54.762Z,5.86
2018-03-23T06:14:55.496Z,5.89
2018-03-23T06:15:56.232Z,5.89
2018-03-23T06:16:56.997Z,5.90
2018-03-23T06:17:57.730Z,5.93
2018-03-23T06:18:58.453Z,5.94
2018-03-23T06:19:59.210Z,5.97
2018-03-23T06:20:59.942Z,5.91
2018-03-23T06:22:00.677Z,5.90
2018-03-23T06:23:01.427Z,5.98
2018-03-23T06:24:02.152Z,5.94
2018-03-23T06:25:02.872Z,5.98
2018-03-23T06:26:03.615Z,5.90
2018-03-23T06:27:04.339Z,5.91
2018-03-23T06:28:05.066Z,5.90
2018-03-23T06:29:05.789Z,5.94
2018-03-23T06:30:06.513Z,5.94
2018-03-23T06:31:07.236Z,5.97
2018-03-23T06:32:07.979Z,5.98
2018-03-23T06:33:08.727Z,5.97
2018-03-23T06:34:09.462Z,5.99
2018-03-23T06:35:10.185Z,5.94
2018-03-23T06:36:10.935Z,6.01
2018-03-23T06:37:11.658Z,6.05
2018-03-23T06:38:12.394Z,6.07
2018-03-23T06:39:13.115Z,5.99
2018-03-23T06:40:13.837Z,5.99
2018-03-23T06:41:14.572Z,5.94
2018-03-23T06:42:15.297Z,6.05
2018-03-23T06:43:16.039Z,6.02
2018-03-23T06:44:16.804Z,6.02
2018-03-23T06:45:17.533Z,6.09
2018-03-23T06:46:18.256Z,6.11
2018-03-23T06:47:19.005Z,6.04
2018-03-23T06:48:19.724Z,6.02
2018-03-23T06:49:20.458Z,6.09
2018-03-23T06:50:21.181Z,6.07
2018-03-23T06:51:21.914Z,6.08
2018-03-23T06:52:22.640Z,6.07
2018-03-23T06:53:23.398Z,6.07
2018-03-23T06:54:24.181Z,6.05
2018-03-23T06:55:24.856Z,5.97
2018-03-23T06:56:25.567Z,6.04
2018-03-23T06:57:26.302Z,6.11
2018-03-23T06:58:27.036Z,6.08
2018-03-23T06:59:27.759Z,6.02
2018-03-23T07:00:28.481Z,5.98
2018-03-23T07:01:29.243Z,6.04
2018-03-23T07:02:29.963Z,6.08
2018-03-23T07:03:30.718Z,6.09
2018-03-23T07:04:31.457Z,6.07
2018-03-23T07:05:32.204Z,6.07
2018-03-23T07:06:32.951Z,6.07
2018-03-23T07:07:33.685Z,6.11
2018-03-23T07:08:34.408Z,6.07
2018-03-23T07:09:35.132Z,6.14
2018-03-23T07:10:35.878Z,6.19
2018-03-23T07:11:36.600Z,6.14
2018-03-23T07:12:37.346Z,6.22
2018-03-23T07:13:38.091Z,6.14
2018-03-23T07:14:38.848Z,6.12
2018-03-23T07:17:04.273Z,6.20
2018-03-23T07:18:05.005Z,6.09
2018-03-23T07:19:05.740Z,6.12
2018-03-23T07:20:06.497Z,6.20
2018-03-23T07:21:07.245Z,6.26
2018-03-23T07:22:07.992Z,6.20
2018-03-23T07:23:08.726Z,6.20
2018-03-23T07:24:09.461Z,6.16
2018-03-23T07:25:10.182Z,6.22
2018-03-23T07:26:10.905Z,6.16
2018-03-23T07:27:11.629Z,6.20
2018-03-23T07:28:12.353Z,6.24
2018-03-23T07:29:13.109Z,6.22
2018-03-23T07:30:13.880Z,6.35
2018-03-23T07:31:14.606Z,6.36
2018-03-23T07:32:15.342Z,6.35
2018-03-23T07:33:16.076Z,6.28
2018-03-23T07:34:16.846Z,6.30
2018-03-23T07:35:17.604Z,6.31
2018-03-23T07:36:18.341Z,6.35
2018-03-23T07:37:19.066Z,6.36
2018-03-23T07:38:19.813Z,6.41
2018-03-23T07:39:20.563Z,6.45
2018-03-23T07:40:21.323Z,6.41
2018-03-23T07:41:22.045Z,6.42
2018-03-23T07:42:22.781Z,6.38
2018-03-23T07:43:23.517Z,6.41
2018-03-23T07:44:24.251Z,6.33
2018-03-23T07:45:24.988Z,6.44
2018-03-23T07:46:25.757Z,6.41
2018-03-23T07:47:26.516Z,6.38
2018-03-23T07:48:27.252Z,6.41
2018-03-23T07:49:27.986Z,6.41
2018-03-23T07:50:28.747Z,6.41
2018-03-23T07:51:29.495Z,6.54
2018-03-23T07:52:30.219Z,6.46
2018-03-23T07:53:30.943Z,6.59
2018-03-23T07:54:31.665Z,6.56
2018-03-23T07:55:32.387Z,6.51
2018-03-23T07:56:33.114Z,6.49
2018-03-23T07:57:33.862Z,6.46
2018-03-23T07:58:34.590Z,6.56
2018-03-23T07:59:35.312Z,6.56
2018-03-23T08:00:36.036Z,6.59
2018-03-23T08:01:36.762Z,6.52
2018-03-23T08:02:37.498Z,6.60
2018-03-23T08:03:38.223Z,6.56
2018-03-23T08:04:38.947Z,6.52
2018-03-23T08:05:39.671Z,6.48
2018-03-23T08:06:40.461Z,6.72
2018-03-23T08:07:41.229Z,6.82
2018-03-23T08:08:41.952Z,7.11
2018-03-23T08:09:42.711Z,7.25
2018-03-23T08:10:43.436Z,7.33
2018-03-23T08:11:44.182Z,7.18
2018-03-23T08:12:44.921Z,7.07
2018-03-23T08:13:45.643Z,7.06
2018-03-23T08:14:46.367Z,6.99
2018-03-23T08:15:47.090Z,6.97
2018-03-23T08:16:47.837Z,6.82
2018-03-23T08:17:48.571Z,6.78
2018-03-23T08:18:49.331Z,6.74
2018-03-23T08:19:50.091Z,6.79
2018-03-23T08:20:50.818Z,6.81
2018-03-23T08:21:51.552Z,6.79
2018-03-23T08:22:52.312Z,6.78
2018-03-23T08:23:53.039Z,6.79
2018-03-23T08:24:53.765Z,6.81
2018-03-23T08:25:54.505Z,6.81
2018-03-23T08:26:55.240Z,6.75
2018-03-23T08:27:55.968Z,6.72
2018-03-23T08:28:56.690Z,6.69
2018-03-23T08:29:57.428Z,6.77
2018-03-23T08:30:58.152Z,6.81
2018-03-23T08:31:58.877Z,6.78
2018-03-23T08:32:59.603Z,6.81
2018-03-23T08:34:00.327Z,6.85
2018-03-23T08:35:01.073Z,6.78
2018-03-23T08:36:01.832Z,6.75
2018-03-23T08:37:02.559Z,6.79
2018-03-23T08:38:03.284Z,6.79
2018-03-23T08:39:04.035Z,6.75
2018-03-23T08:40:04.761Z,6.85
2018-03-23T08:41:05.497Z,6.79
2018-03-23T08:42:06.243Z,6.77
2018-03-23T08:43:06.978Z,6.85
2018-03-23T08:44:07.791Z,6.85
2018-03-23T08:45:08.464Z,6.85
2018-03-23T08:46:09.188Z,6.74
2018-03-23T08:47:09.914Z,6.81
2018-03-23T08:48:10.648Z,6.74
2018-03-23T08:49:11.384Z,6.74
2018-03-23T08:50:12.141Z,6.85
2018-03-23T08:51:12.877Z,6.92
2018-03-23T08:52:13.614Z,6.85
2018-03-23T08:53:14.339Z,6.95
2018-03-23T08:54:15.063Z,6.84
2018-03-23T08:55:15.791Z,7.02
2018-03-23T08:56:16.519Z,7.03
2018-03-23T08:57:17.254Z,7.00
2018-03-23T08:58:17.980Z,6.97
2018-03-23T08:59:18.706Z,6.93
2018-03-23T09:00:19.445Z,6.93
2018-03-23T09:01:20.172Z,6.95
2018-03-23T09:02:20.895Z,7.02
2018-03-23T09:03:21.621Z,6.97
2018-03-23T09:04:22.347Z,7.02
2018-03-23T09:05:23.073Z,6.99
2018-03-23T09:06:23.812Z,6.97
2018-03-23T09:07:24.537Z,7.02
2018-03-23T09:08:25.287Z,7.00
2018-03-23T09:09:26.014Z,7.05
2018-03-23T09:10:26.738Z,7.11
2018-03-23T09:11:27.473Z,7.07
2018-03-23T09:12:28.209Z,7.11
2018-03-23T09:13:28.947Z,7.06
2018-03-23T09:14:29.673Z,7.11
2018-03-23T09:15:30.401Z,7.11
2018-03-23T09:16:31.139Z,7.24
2018-03-23T09:17:31.861Z,7.20
2018-03-23T09:18:32.585Z,7.15
2018-03-23T09:19:33.321Z,7.18
2018-03-23T09:20:34.105Z,7.20
2018-03-23T09:21:34.810Z,7.14
2018-03-23T09:22:35.538Z,7.17
2018-03-23T09:23:36.275Z,7.17
2018-03-23T09:24:37.012Z,7.15
2018-03-23T09:25:37.739Z,7.13
2018-03-23T09:26:38.491Z,7.28
2018-03-23T09:27:39.254Z,7.21
2018-03-23T09:28:39.992Z,7.33
2018-03-23T09:29:40.751Z,7.31
2018-03-23T09:30:41.478Z,7.31
2018-03-23T09:31:42.215Z,7.35
2018-03-23T09:32:42.987Z,7.31
2018-03-23T09:33:43.723Z,7.35
2018-03-23T09:34:44.449Z,7.25
2018-03-23T09:35:45.176Z,7.33
2018-03-23T09:36:45.905Z,7.48
2018-03-23T09:37:46.662Z,7.53
2018-03-23T09:38:47.399Z,7.77
2018-03-23T09:39:48.163Z,7.72
2018-03-23T09:40:48.887Z,7.75
2018-03-23T09:41:49.638Z,7.75
2018-03-23T09:42:50.367Z,7.70
2018-03-23T09:43:51.110Z,7.75
2018-03-23T09:44:51.843Z,7.60
2018-03-23T09:45:52.603Z,7.67
2018-03-23T09:46:53.333Z,7.67
2018-03-23T09:47:54.071Z,7.56
2018-03-23T09:48:54.799Z,7.57
2018-03-23T09:49:55.527Z,7.51
2018-03-23T09:50:56.263Z,7.42
2018-03-23T09:51:56.993Z,7.50
2018-03-23T09:52:57.750Z,7.39
2018-03-23T09:53:58.482Z,7.38
2018-03-23T09:54:59.209Z,7.36
2018-03-23T09:55:59.973Z,7.20
2018-03-23T09:57:00.709Z,7.18
2018-03-23T09:58:01.435Z,7.24
2018-03-23T09:59:02.161Z,7.25
2018-03-23T10:00:02.890Z,7.24
2018-03-23T10:01:03.616Z,7.28
2018-03-23T10:02:04.344Z,7.29
2018-03-23T10:03:05.098Z,7.29
2018-03-23T10:04:05.910Z,7.35
2018-03-23T10:05:06.560Z,7.36
2018-03-23T10:06:07.285Z,7.33
2018-03-23T10:07:08.012Z,7.33
2018-03-23T10:08:08.736Z,7.35
2018-03-23T10:09:09.463Z,7.14
2018-03-23T10:10:10.187Z,7.23
2018-03-23T10:11:10.926Z,7.24
2018-03-23T10:12:11.649Z,7.21
2018-03-23T10:13:12.376Z,7.25
2018-03-23T10:14:13.100Z,7.35
2018-03-23T10:15:13.838Z,7.28
2018-03-23T10:16:14.564Z,7.25
2018-03-23T10:17:15.303Z,7.29
2018-03-23T10:18:16.029Z,7.31
2018-03-23T10:19:16.791Z,7.21
2018-03-23T10:20:17.517Z,7.23
2018-03-23T10:21:18.323Z,7.31
2018-03-23T10:22:18.992Z,7.17
2018-03-23T10:23:19.718Z,7.18
2018-03-23T10:24:20.482Z,7.06
2018-03-23T10:25:21.217Z,7.06
2018-03-23T10:26:21.975Z,7.20
2018-03-23T10:27:22.698Z,7.21
2018-03-23T10:28:23.448Z,7.23
2018-03-23T10:29:24.200Z,7.20
2018-03-23T10:30:24.927Z,7.24
2018-03-23T10:31:25.656Z,7.38
2018-03-23T10:32:26.384Z,7.50
2018-03-23T10:33:27.113Z,7.67
2018-03-23T10:34:27.866Z,7.70
2018-03-23T10:35:28.648Z,7.90
2018-03-23T10:36:29.344Z,7.98
2018-03-23T10:37:30.085Z,8.00
2018-03-23T10:38:30.823Z,8.10
2018-03-23T10:39:31.552Z,8.05
2018-03-23T10:40:32.280Z,8.05
2018-03-23T10:41:33.017Z,7.91
2018-03-23T10:42:33.747Z,7.87
2018-03-23T10:43:34.484Z,7.80
2018-03-23T10:44:35.222Z,7.69
2018-03-23T10:45:35.950Z,7.70
2018-03-23T10:46:36.676Z,7.66
2018-03-23T10:47:37.436Z,7.73
2018-03-23T10:48:38.165Z,7.69
2018-03-23T10:49:38.892Z,7.76
2018-03-23T10:50:39.622Z,7.79
2018-03-23T10:51:40.368Z,7.77
2018-03-23T10:52:41.142Z,7.77
2018-03-23T10:53:41.824Z,7.80
2018-03-23T10:54:42.563Z,7.79
2018-03-23T10:55:43.303Z,7.93
2018-03-23T10:56:44.030Z,7.87
2018-03-23T10:57:44.768Z,7.83
2018-03-23T10:58:45.507Z,7.88
2018-03-23T10:59:46.272Z,7.91
2018-03-23T11:00:47.000Z,8.00
2018-03-23T11:01:47.754Z,8.00
2018-03-23T11:02:48.485Z,7.94
2018-03-23T11:03:49.223Z,8.03
2018-03-23T11:04:49.956Z,8.19
2018-03-23T11:05:50.685Z,8.45
2018-03-23T11:06:51.416Z,8.56
2018-03-23T11:07:52.177Z,8.84
2018-03-23T11:08:52.906Z,9.13
2018-03-23T11:09:53.640Z,9.41
2018-03-23T11:10:54.373Z,9.66
2018-03-23T11:11:55.130Z,9.66
2018-03-23T11:12:55.892Z,9.83
2018-03-23T11:13:56.627Z,9.92
2018-03-23T11:14:57.359Z,9.79
2018-03-23T11:15:58.093Z,9.40
2018-03-23T11:16:58.851Z,9.73
2018-03-23T11:17:59.595Z,9.62
2018-03-23T11:19:00.333Z,9.73
2018-03-23T11:20:01.086Z,9.64
2018-03-23T11:21:01.821Z,9.61
2018-03-23T11:22:02.554Z,9.39
2018-03-23T11:23:03.300Z,9.44
2018-03-23T11:24:04.031Z,9.34
2018-03-23T11:25:04.761Z,9.31
2018-03-23T11:26:05.528Z,9.31
2018-03-23T11:27:06.294Z,9.22
2018-03-23T11:28:07.028Z,8.97
2018-03-23T11:29:07.794Z,8.91
2018-03-23T11:30:08.522Z,8.76
2018-03-23T11:31:09.263Z,8.85
2018-03-23T11:32:09.993Z,8.81
2018-03-23T11:33:10.724Z,8.74
2018-03-23T11:34:11.453Z,8.60
2018-03-23T11:35:12.206Z,8.53
2018-03-23T11:36:12.962Z,8.56
2018-03-23T11:37:13.697Z,8.56
2018-03-23T11:38:14.426Z,8.53
2018-03-23T11:39:15.154Z,8.56
2018-03-23T11:40:15.882Z,8.60
2018-03-23T11:41:16.620Z,8.53
2018-03-23T11:42:17.346Z,8.58
2018-03-23T11:43:18.072Z,8.56
2018-03-23T11:44:18.860Z,8.46
2018-03-23T11:45:19.539Z,8.36
2018-03-23T11:46:20.267Z,8.45
2018-03-23T11:47:20.992Z,8.27
2018-03-23T11:48:21.719Z,8.27
2018-03-23T11:49:22.461Z,8.24
2018-03-23T11:50:23.185Z,8.19
2018-03-23T11:51:23.923Z,8.27
2018-03-23T11:52:24.660Z,8.33
2018-03-23T11:53:25.385Z,8.33
2018-03-23T11:54:26.111Z,8.36
2018-03-23T11:55:26.839Z,8.42
2018-03-23T11:56:27.593Z,8.51
2018-03-23T11:57:28.314Z,8.53
2018-03-23T11:58:29.041Z,8.45
2018-03-23T11:59:29.780Z,8.48
2018-03-23T12:00:30.513Z,8.45
2018-03-23T12:01:31.235Z,8.44
2018-03-23T12:02:31.960Z,8.28
2018-03-23T12:03:32.697Z,8.44
2018-03-23T12:04:33.433Z,8.41
2018-03-23T12:05:34.172Z,8.53
2018-03-23T12:06:34.942Z,8.52
2018-03-23T12:07:35.715Z,8.70
2018-03-23T12:08:36.440Z,8.69
2018-03-23T12:09:37.202Z,8.69
2018-03-23T12:10:37.966Z,8.67
2018-03-23T12:11:38.693Z,8.66
2018-03-23T12:12:39.445Z,8.67
2018-03-23T12:13:40.171Z,8.67
2018-03-23T12:14:40.934Z,8.61
2018-03-23T12:15:41.667Z,8.66
2018-03-23T12:16:42.394Z,8.67
2018-03-23T12:17:43.149Z,8.64
2018-03-23T12:18:43.870Z,8.69
2018-03-23T12:19:44.600Z,8.66
2018-03-23T12:20:45.351Z,8.74
2018-03-23T12:21:46.078Z,8.66
2018-03-23T12:22:46.828Z,8.74
2018-03-23T12:23:47.581Z,8.67
2018-03-23T12:24:48.319Z,8.66
2018-03-23T12:25:49.081Z,8.69
2018-03-23T12:26:49.809Z,8.67
2018-03-23T12:27:50.537Z,8.61
2018-03-23T12:28:51.278Z,8.67
2018-03-23T12:29:52.034Z,8.63
2018-03-23T12:30:52.774Z,8.70
2018-03-23T12:31:53.500Z,8.63
2018-03-23T12:32:54.227Z,8.69
2018-03-23T12:33:54.963Z,8.70
2018-03-23T12:34:55.724Z,8.67
2018-03-23T12:35:56.429Z,8.61
2018-03-23T12:36:57.176Z,8.56
2018-03-23T12:37:57.910Z,8.49
2018-03-23T12:38:58.643Z,8.44
2018-03-23T12:39:59.414Z,8.30
2018-03-23T12:41:00.150Z,8.34
2018-03-23T12:42:00.910Z,8.45
2018-03-23T12:43:01.648Z,8.36
2018-03-23T12:44:02.419Z,8.36
2018-03-23T12:45:03.145Z,8.30
2018-03-23T12:46:03.870Z,8.33
2018-03-23T12:47:04.609Z,8.28
2018-03-23T12:48:05.333Z,8.41
2018-03-23T12:49:06.070Z,8.49
2018-03-23T12:50:06.824Z,8.34
2018-03-23T12:51:07.537Z,8.28
2018-03-23T12:52:08.268Z,8.30
2018-03-23T12:53:09.004Z,8.30
2018-03-23T12:54:09.728Z,8.37
2018-03-23T12:55:10.453Z,8.36
2018-03-23T12:56:11.199Z,8.30
2018-03-23T12:57:11.907Z,8.24
2018-03-23T12:58:12.642Z,8.18
2018-03-23T12:59:13.366Z,8.19
2018-03-23T13:00:14.092Z,8.19
2018-03-23T13:01:14.829Z,8.26
2018-03-23T13:02:15.569Z,8.19
2018-03-23T13:03:16.290Z,8.24
2018-03-23T13:04:17.014Z,8.30
2018-03-23T13:05:17.775Z,8.23
2018-03-23T13:06:18.502Z,8.20
2018-03-23T13:07:19.257Z,8.20
2018-03-23T13:08:19.981Z,8.18
2018-03-23T13:09:20.727Z,8.15
2018-03-23T13:10:21.450Z,8.15
2018-03-23T13:11:22.185Z,8.10
2018-03-23T13:12:22.908Z,8.08
2018-03-23T13:13:23.632Z,8.15
2018-03-23T13:14:24.356Z,8.09
2018-03-23T13:15:25.080Z,8.10
2018-03-23T13:16:25.815Z,8.13
2018-03-23T13:17:26.579Z,8.16
2018-03-23T13:18:27.324Z,8.16
2018-03-23T13:19:28.048Z,8.18
2018-03-23T13:20:28.776Z,8.08
2018-03-23T13:21:29.499Z,8.13
2018-03-23T13:22:30.223Z,8.12
2018-03-23T13:23:30.953Z,8.08
2018-03-23T13:24:31.698Z,8.12
2018-03-23T13:25:32.444Z,8.12
2018-03-23T13:26:33.203Z,8.15
2018-03-23T13:27:33.937Z,8.20
2018-03-23T13:28:34.661Z,8.18
2018-03-23T13:29:35.418Z,8.24
2018-03-23T13:30:36.188Z,8.19
2018-03-23T13:31:36.965Z,8.36
2018-03-23T13:32:37.720Z,8.30
2018-03-23T13:33:38.460Z,8.23
2018-03-23T13:34:39.192Z,8.27
2018-03-23T13:35:39.921Z,8.28
2018-03-23T13:36:40.669Z,8.31
2018-03-23T13:37:41.420Z,8.36
2018-03-23T13:38:42.180Z,8.34
2018-03-23T13:39:42.950Z,8.36
2018-03-23T13:40:43.675Z,8.46
2018-03-23T13:41:44.409Z,8.34
2018-03-23T13:42:45.170Z,8.45
2018-03-23T13:43:45.904Z,8.44
2018-03-23T13:44:46.668Z,8.37
2018-03-23T13:45:47.364Z,8.38
2018-03-23T13:46:48.091Z,8.37
2018-03-23T13:47:48.818Z,8.36
2018-03-23T13:48:49.571Z,8.34
2018-03-23T13:49:50.293Z,8.41
2018-03-23T13:50:51.020Z,8.34
2018-03-23T13:51:51.755Z,8.30
2018-03-23T13:52:52.493Z,8.38
2018-03-23T13:53:53.206Z,8.38
2018-03-23T13:54:53.939Z,8.41
2018-03-23T13:55:54.711Z,8.34
2018-03-23T13:56:55.436Z,8.37
2018-03-23T13:57:56.167Z,8.45
2018-03-23T13:58:56.925Z,8.44
2018-03-23T13:59:57.650Z,8.38
2018-03-23T14:00:58.387Z,8.36
2018-03-23T14:01:59.112Z,8.37
2018-03-23T14:02:59.847Z,8.30
2018-03-23T14:04:00.584Z,8.31
2018-03-23T14:05:01.308Z,8.27
2018-03-23T14:06:02.057Z,8.23
2018-03-23T14:07:02.790Z,8.23
2018-03-23T14:08:03.515Z,8.28
2018-03-23T14:09:04.272Z,8.20
2018-03-23T14:10:05.086Z,8.23
2018-03-23T14:11:05.765Z,8.19
2018-03-23T14:12:06.489Z,8.19
2018-03-23T14:13:07.210Z,8.26
2018-03-23T14:14:07.936Z,8.24
2018-03-23T14:15:08.660Z,8.24
2018-03-23T14:16:09.383Z,8.30
2018-03-23T14:17:10.132Z,8.24
2018-03-23T14:18:10.890Z,8.27
2018-03-23T14:19:11.616Z,8.26
2018-03-23T14:20:12.340Z,8.13
2018-03-23T14:21:13.074Z,8.15
2018-03-23T14:22:13.824Z,8.12
2018-03-23T14:23:14.532Z,8.16
2018-03-23T14:24:15.254Z,8.26
2018-03-23T14:25:16.000Z,8.27
2018-03-23T14:26:16.713Z,8.20
2018-03-23T14:27:17.437Z,8.18
2018-03-23T14:28:18.166Z,8.16
2018-03-23T14:29:18.910Z,8.26
2018-03-23T14:30:19.667Z,8.20
2018-03-23T14:31:20.389Z,8.27
2018-03-23T14:32:21.112Z,8.24
2018-03-23T14:33:21.835Z,8.16
2018-03-23T14:34:22.570Z,8.09
2018-03-23T14:35:23.293Z,8.12
2018-03-23T14:36:24.019Z,8.13
2018-03-23T14:37:24.741Z,7.98
2018-03-23T14:38:25.464Z,8.15
2018-03-23T14:39:26.200Z,8.13
2018-03-23T14:40:26.972Z,8.18
2018-03-23T14:41:27.697Z,8.10
2018-03-23T14:42:28.419Z,8.15
2018-03-23T14:43:29.177Z,8.09
2018-03-23T14:44:29.901Z,8.08
2018-03-23T14:45:30.622Z,8.09
2018-03-23T14:46:31.349Z,8.10
2018-03-23T14:47:32.066Z,8.00
2018-03-23T14:48:32.794Z,8.15
2018-03-23T14:49:33.525Z,8.05
2018-03-23T14:50:34.249Z,8.15
2018-03-23T14:51:34.982Z,8.10
2018-03-23T14:52:35.706Z,8.19
2018-03-23T14:53:36.439Z,8.12
2018-03-23T14:54:37.162Z,8.08
2018-03-23T14:55:37.896Z,8.06
2018-03-23T14:56:38.630Z,8.12
2018-03-23T14:57:39.354Z,8.12
2018-03-23T14:58:40.101Z,8.13
2018-03-23T14:59:40.826Z,8.12
2018-03-23T15:00:41.552Z,8.13
2018-03-23T15:01:42.313Z,8.12
2018-03-23T15:02:43.019Z,8.10
2018-03-23T15:03:43.752Z,8.15
2018-03-23T15:04:44.477Z,8.10
2018-03-23T15:05:45.224Z,8.26
2018-03-23T15:06:45.980Z,8.16
2018-03-23T15:07:46.703Z,8.16
2018-03-23T15:08:47.438Z,8.19
2018-03-23T15:09:48.173Z,8.10
2018-03-23T15:10:48.897Z,7.98
2018-03-23T15:11:49.632Z,8.13
2018-03-23T15:12:50.355Z,8.15
2018-03-23T15:13:51.080Z,8.10
2018-03-23T15:14:51.804Z,8.10
2018-03-23T15:15:52.550Z,8.12
2018-03-23T15:16:53.275Z,8.09
2018-03-23T15:17:54.000Z,8.01
2018-03-23T15:18:54.725Z,7.94
2018-03-23T15:19:55.474Z,7.98
2018-03-23T15:20:56.234Z,8.06
2018-03-23T15:21:56.956Z,8.01
2018-03-23T15:22:57.691Z,8.12
2018-03-23T15:23:58.439Z,8.00
2018-03-23T15:24:59.162Z,8.15
2018-03-23T15:25:59.908Z,8.18
2018-03-23T15:27:00.641Z,8.10
2018-03-23T15:28:01.363Z,8.09
2018-03-23T15:29:02.088Z,8.19
2018-03-23T15:30:02.910Z,8.26
2018-03-23T15:31:03.561Z,8.24
2018-03-23T15:32:04.286Z,8.30
2018-03-23T15:33:05.012Z,8.27
2018-03-23T15:34:05.758Z,8.26
2018-03-23T15:35:06.482Z,8.30
2018-03-23T15:36:07.208Z,8.30
2018-03-23T15:37:07.933Z,8.34
2018-03-23T15:38:08.657Z,8.31
2018-03-23T15:39:09.401Z,8.37
2018-03-23T15:40:10.130Z,8.31
2018-03-23T15:41:10.850Z,8.34
2018-03-23T15:42:11.585Z,8.23
2018-03-23T15:43:12.313Z,8.28
2018-03-23T15:44:13.034Z,8.24
2018-03-23T15:45:13.783Z,8.26
2018-03-23T15:46:14.508Z,8.27
2018-03-23T15:47:15.233Z,8.23
2018-03-23T15:48:15.959Z,8.19
2018-03-23T15:49:16.727Z,8.10
2018-03-23T15:50:17.402Z,8.05
2018-03-23T15:51:18.137Z,8.15
2018-03-23T15:52:18.893Z,8.00
2018-03-23T15:53:19.618Z,8.18
2018-03-23T15:54:20.350Z,8.13
2018-03-23T15:55:21.075Z,8.05
2018-03-23T15:56:21.828Z,7.97
2018-03-23T15:57:22.546Z,7.95
2018-03-23T15:58:23.269Z,7.85
2018-03-23T15:59:24.029Z,7.88
2018-03-23T16:00:24.764Z,7.77
2018-03-23T16:01:25.496Z,7.72
2018-03-23T16:02:26.219Z,7.70
2018-03-23T16:03:26.966Z,7.76
2018-03-23T16:04:27.719Z,7.67
2018-03-23T16:05:28.449Z,7.63
2018-03-23T16:06:29.172Z,7.70
2018-03-23T16:07:29.897Z,7.57
2018-03-23T16:08:30.648Z,7.66
2018-03-23T16:09:31.379Z,7.58
2018-03-23T16:10:32.112Z,7.57
2018-03-23T16:11:32.847Z,7.67
2018-03-23T16:12:33.569Z,7.63
2018-03-23T16:13:34.289Z,7.53
2018-03-23T16:14:35.014Z,7.53
2018-03-23T16:15:35.735Z,7.66
2018-03-23T16:16:36.486Z,7.58
2018-03-23T16:17:37.205Z,7.66
2018-03-23T16:18:37.927Z,7.58
2018-03-23T16:19:38.661Z,7.56
2018-03-23T16:20:39.384Z,7.48
2018-03-23T16:21:40.120Z,7.38
2018-03-23T16:22:40.854Z,7.50
2018-03-23T16:23:41.571Z,7.50
2018-03-23T16:24:42.293Z,7.47
2018-03-23T16:25:43.018Z,7.48
2018-03-23T16:26:43.770Z,7.51
2018-03-23T16:27:44.492Z,7.47
2018-03-23T16:28:45.217Z,7.54
2018-03-23T16:29:45.933Z,7.50
2018-03-23T16:30:46.659Z,7.53
2018-03-23T16:31:47.375Z,7.53
2018-03-23T16:32:48.095Z,7.58
2018-03-23T16:33:48.822Z,7.54
2018-03-23T16:34:49.539Z,7.51
2018-03-23T16:35:50.272Z,7.53
2018-03-23T16:36:51.004Z,7.54
2018-03-23T16:37:51.726Z,7.51
2018-03-23T16:38:52.460Z,7.57
2018-03-23T16:39:53.215Z,7.51
2018-03-23T16:40:53.970Z,7.53
2018-03-23T16:41:54.692Z,7.54
2018-03-23T16:42:55.439Z,7.51
2018-03-23T16:43:56.171Z,7.58
2018-03-23T16:44:56.893Z,7.50
2018-03-23T16:45:57.652Z,7.54
2018-03-23T16:46:58.379Z,7.51
2018-03-23T16:47:59.095Z,7.53
2018-03-23T16:48:59.828Z,7.51
2018-03-23T16:50:00.552Z,7.54
2018-03-23T16:51:01.310Z,7.54
2018-03-23T16:52:02.030Z,7.48
2018-03-23T16:53:02.763Z,7.42
2018-03-23T16:54:03.495Z,7.54
2018-03-23T16:55:04.253Z,7.42
2018-03-23T16:56:04.986Z,7.35
2018-03-23T16:57:05.717Z,7.40
2018-03-23T16:58:06.440Z,7.48
2018-03-23T16:59:07.195Z,7.50
2018-03-23T17:00:07.938Z,7.40
2018-03-23T17:01:08.662Z,7.47
2018-03-23T17:02:09.393Z,7.47
2018-03-23T17:03:10.113Z,7.42
2018-03-23T17:04:10.859Z,7.47
2018-03-23T17:05:11.610Z,7.39
2018-03-23T17:06:12.327Z,7.45
2018-03-23T17:07:13.059Z,7.43
2018-03-23T17:08:13.779Z,7.45
2018-03-23T17:09:14.512Z,7.53
2018-03-23T17:10:15.271Z,7.42
2018-03-23T17:11:16.017Z,7.42
2018-03-23T17:12:16.913Z,7.40
2018-03-23T17:13:17.672Z,7.48
2018-03-23T17:14:18.417Z,7.47
2018-03-23T17:15:19.175Z,7.47
2018-03-23T17:16:19.896Z,7.47
2018-03-23T17:17:20.620Z,7.43
2018-03-23T17:18:21.339Z,7.40
2018-03-23T17:19:22.059Z,7.36
2018-03-23T17:20:22.779Z,7.42
2018-03-23T17:21:23.511Z,7.47
2018-03-23T17:22:24.228Z,7.50
2018-03-23T17:23:24.953Z,7.43
2018-03-23T17:24:25.694Z,7.45
2018-03-23T17:25:26.437Z,7.39
2018-03-23T17:26:27.168Z,7.42
2018-03-23T17:27:27.935Z,7.35
2018-03-23T17:28:28.667Z,7.48
2018-03-23T17:29:29.397Z,7.45
2018-03-23T17:30:30.116Z,7.48
2018-03-23T17:31:30.864Z,7.39
2018-03-23T17:32:31.607Z,7.40
2018-03-23T17:33:32.333Z,7.39
2018-03-23T17:34:33.081Z,7.38
2018-03-23T17:35:33.836Z,7.33
2018-03-23T17:36:34.592Z,7.38
2018-03-23T17:37:35.323Z,7.36
2018-03-23T17:38:36.045Z,7.36
2018-03-23T17:39:36.802Z,7.33
2018-03-23T17:40:37.520Z,7.36
2018-03-23T17:41:38.252Z,7.35
2018-03-23T17:42:38.973Z,7.36
2018-03-23T17:43:39.692Z,7.33
2018-03-23T17:44:40.422Z,7.32
2018-03-23T17:45:41.152Z,7.40
2018-03-23T17:46:41.869Z,7.36
2018-03-23T17:47:42.598Z,7.36
2018-03-23T17:48:43.316Z,7.39
2018-03-23T17:49:44.038Z,7.25
2018-03-23T17:50:44.769Z,7.29
2018-03-23T17:51:45.490Z,7.40
2018-03-23T17:52:46.231Z,7.69
2018-03-23T17:53:46.961Z,7.79
2018-03-23T17:54:47.684Z,7.83
2018-03-23T17:55:48.412Z,7.69
2018-03-23T17:56:49.140Z,7.75
2018-03-23T17:57:49.861Z,7.67
2018-03-23T17:58:50.581Z,7.57
2018-03-23T17:59:51.311Z,7.54
2018-03-23T18:00:52.029Z,7.54
2018-03-23T18:01:52.759Z,7.42
2018-03-23T18:02:53.524Z,7.47
2018-03-23T18:03:54.240Z,7.48
2018-03-23T18:04:54.959Z,7.39
2018-03-23T18:05:55.687Z,7.42
2018-03-23T18:06:56.416Z,7.39
2018-03-23T18:07:57.134Z,7.40
2018-03-23T18:08:57.864Z,7.35
2018-03-23T18:09:58.617Z,7.32
2018-03-23T18:10:59.373Z,7.31
2018-03-23T18:12:00.084Z,7.28
2018-03-23T18:13:00.800Z,7.28
2018-03-23T18:14:01.530Z,7.29
2018-03-23T18:15:02.258Z,7.23
2018-03-23T18:16:03.022Z,7.20
2018-03-23T18:17:03.790Z,7.21
2018-03-23T18:18:04.459Z,7.21
2018-03-23T18:19:05.189Z,7.20